createdAt,value
2022-12-15T00:02:19.730Z,27.37
2022-12-15T00:05:05.429Z,22.80
2022-12-15T00:07:50.866Z,24.60
2022-12-15T00:10:36.346Z,26.83
2022-12-15T00:13:21.572Z,23.70
2022-12-15T00:16:06.973Z,23.53
2022-12-15T00:18:54.096Z,25.00
2022-12-15T00:21:39.508Z,24.83
2022-12-15T00:24:25.044Z,22.53
2022-12-15T00:27:10.885Z,27.07
2022-12-15T00:29:56.166Z,23.40
2022-12-15T00:32:41.979Z,28.30
2022-12-15T00:35:28.569Z,27.60
2022-12-15T00:38:14.388Z,26.50
2022-12-15T00:40:42.263Z,27.87
2022-12-15T00:43:12.129Z,27.40
2022-12-15T00:46:00.706Z,25.63
2022-12-15T00:48:28.644Z,27.93
2022-12-15T00:50:57.029Z,26.47
2022-12-15T00:53:42.494Z,23.43
2022-12-15T00:56:27.908Z,28.20
2022-12-15T00:59:13.352Z,23.57
2022-12-15T01:01:58.925Z,25.33
2022-12-15T01:04:44.508Z,26.10
2022-12-15T01:07:31.250Z,24.60
2022-12-15T01:10:16.891Z,25.20
2022-12-15T01:13:02.744Z,26.40
2022-12-15T01:15:48.645Z,25.63
2022-12-15T01:18:34.106Z,24.73
2022-12-15T01:21:03.210Z,23.47
2022-12-15T01:23:32.604Z,25.87
2022-12-15T01:26:00.962Z,31.07
2022-12-15T01:28:28.914Z,20.20
2022-12-15T01:30:56.841Z,26.83
2022-12-15T01:33:24.863Z,25.10
2022-12-15T01:35:59.400Z,22.23
2022-12-15T01:38:27.884Z,23.13
2022-12-15T01:40:57.858Z,22.73
2022-12-15T01:43:27.233Z,25.00
2022-12-15T01:45:57.469Z,24.83
2022-12-15T01:48:28.804Z,29.20
2022-12-15T01:51:11.494Z,38.90
2022-12-15T01:53:41.016Z,40.67
2022-12-15T01:56:10.534Z,42.10
2022-12-15T01:58:40.263Z,42.40
2022-12-15T02:01:08.134Z,44.40
2022-12-15T02:03:36.172Z,45.60
2022-12-15T02:06:04.508Z,50.53
2022-12-15T02:08:32.486Z,47.63
2022-12-15T02:11:25.644Z,46.17
2022-12-15T02:13:57.801Z,50.43
2022-12-15T02:16:27.962Z,47.50
2022-12-15T02:19:00.087Z,46.30
2022-12-15T02:21:30.406Z,45.53
2022-12-15T02:24:15.940Z,45.07
2022-12-15T02:27:05.269Z,44.23
2022-12-15T02:29:42.541Z,40.83
2022-12-15T02:32:13.515Z,42.87
2022-12-15T02:34:43.806Z,44.80
2022-12-15T02:37:13.346Z,41.23
2022-12-15T02:39:41.801Z,41.50
2022-12-15T02:42:10.651Z,38.73
2022-12-15T02:44:40.295Z,37.50
2022-12-15T02:47:27.120Z,40.20
2022-12-15T02:50:09.789Z,38.43
2022-12-15T02:52:43.788Z,33.97
2022-12-15T02:55:14.649Z,34.90
2022-12-15T02:57:45.760Z,37.07
2022-12-15T03:00:14.255Z,39.57
2022-12-15T03:02:45.368Z,35.53
2022-12-15T03:05:13.173Z,35.50
2022-12-15T03:07:42.671Z,34.23
2022-12-15T03:10:11.623Z,34.53
2022-12-15T03:12:39.303Z,36.33
2022-12-15T03:15:08.120Z,33.83
2022-12-15T03:17:35.866Z,30.00
2022-12-15T03:20:06.173Z,31.17
2022-12-15T03:22:33.967Z,31.93
2022-12-15T03:25:01.700Z,27.73
2022-12-15T03:27:29.447Z,30.43
2022-12-15T03:29:57.480Z,34.10
2022-12-15T03:32:25.528Z,29.70
2022-12-15T03:34:53.201Z,31.83
2022-12-15T03:37:22.987Z,26.63
2022-12-15T03:39:50.792Z,28.93
2022-12-15T03:42:39.415Z,29.20
2022-12-15T03:45:08.008Z,28.37
2022-12-15T03:47:36.287Z,24.77
2022-12-15T03:50:04.430Z,26.43
2022-12-15T03:52:33.697Z,27.33
2022-12-15T03:55:01.559Z,26.87
2022-12-15T03:57:29.359Z,26.00
2022-12-15T03:59:57.668Z,27.30
2022-12-15T04:02:25.780Z,26.30
2022-12-15T04:04:53.811Z,27.77
2022-12-15T04:07:21.875Z,30.33
2022-12-15T04:09:51.593Z,24.00
2022-12-15T04:12:19.364Z,26.83
2022-12-15T04:14:47.481Z,27.47
2022-12-15T04:17:17.776Z,23.07
2022-12-15T04:20:03.840Z,26.13
2022-12-15T04:22:31.512Z,22.67
2022-12-15T04:25:18.186Z,24.67
2022-12-15T04:28:03.726Z,23.50
2022-12-15T04:30:49.465Z,19.50
2022-12-15T04:33:35.505Z,23.37
2022-12-15T04:36:21.465Z,21.73
2022-12-15T04:39:06.703Z,22.03
2022-12-15T04:41:54.220Z,18.70
2022-12-15T04:44:39.448Z,23.03
2022-12-15T04:47:24.816Z,23.13
2022-12-15T04:50:09.939Z,22.80
2022-12-15T04:52:55.577Z,22.70
2022-12-15T04:55:41.391Z,21.70
2022-12-15T04:58:28.386Z,19.97
2022-12-15T05:01:16.324Z,20.33
2022-12-15T05:04:01.730Z,18.17
2022-12-15T05:06:49.196Z,20.70
2022-12-15T05:09:34.745Z,22.43
2022-12-15T05:12:20.337Z,19.70
2022-12-15T05:15:07.016Z,19.30
2022-12-15T05:17:52.546Z,20.37
2022-12-15T05:20:37.951Z,21.00
2022-12-15T05:23:23.777Z,20.37
2022-12-15T05:26:09.250Z,16.93
2022-12-15T05:28:54.647Z,18.73
2022-12-15T05:31:41.355Z,17.77
2022-12-15T05:34:09.658Z,19.03
2022-12-15T05:36:37.335Z,17.43
2022-12-15T05:39:05.554Z,16.90
2022-12-15T05:41:33.267Z,19.63
2022-12-15T05:44:01.895Z,21.63
2022-12-15T05:46:30.914Z,17.50
2022-12-15T05:48:58.860Z,18.13
2022-12-15T05:51:26.853Z,18.80
2022-12-15T05:53:55.011Z,18.50
2022-12-15T05:56:22.936Z,21.30
2022-12-15T05:58:51.169Z,20.57
2022-12-15T06:01:19.345Z,20.83
2022-12-15T06:03:48.667Z,16.67
2022-12-15T06:06:16.463Z,17.67
2022-12-15T06:08:44.384Z,15.80
2022-12-15T06:11:12.448Z,16.10
2022-12-15T06:13:40.461Z,16.30
2022-12-15T06:16:10.730Z,16.03
2022-12-15T06:18:39.770Z,16.43
2022-12-15T06:21:09.795Z,19.23
2022-12-15T06:23:37.860Z,17.67
2022-12-15T06:26:10.122Z,13.83
2022-12-15T06:28:37.797Z,16.97
2022-12-15T06:31:06.901Z,19.53
2022-12-15T06:33:35.159Z,16.30
2022-12-15T06:36:04.838Z,18.07
2022-12-15T06:38:34.357Z,17.67
2022-12-15T06:41:03.393Z,16.73
2022-12-15T06:43:31.650Z,17.13
2022-12-15T06:46:00.503Z,18.40
2022-12-15T06:48:29.223Z,16.70
2022-12-15T06:50:57.873Z,16.37
2022-12-15T06:53:26.326Z,13.70
2022-12-15T06:56:00.730Z,17.83
2022-12-15T06:58:29.214Z,15.60
2022-12-15T07:00:59.728Z,14.77
2022-12-15T07:03:28.959Z,14.53
2022-12-15T07:06:04.118Z,16.80
2022-12-15T07:08:39.541Z,14.23
2022-12-15T07:11:12.281Z,15.90
2022-12-15T07:13:41.082Z,14.40
2022-12-15T07:16:09.595Z,15.30
2022-12-15T07:18:37.793Z,14.23
2022-12-15T07:21:06.954Z,14.27
2022-12-15T07:23:53.654Z,14.93
2022-12-15T07:26:26.718Z,17.00
2022-12-15T07:28:55.340Z,16.10
2022-12-15T07:31:24.501Z,17.07
2022-12-15T07:33:55.094Z,14.10
2022-12-15T07:36:23.427Z,13.70
2022-12-15T07:38:52.294Z,13.77
2022-12-15T07:41:21.225Z,17.10
2022-12-15T07:43:51.801Z,15.13
2022-12-15T07:46:20.274Z,16.03
2022-12-15T07:48:50.383Z,14.10
2022-12-15T07:51:21.211Z,16.43
2022-12-15T07:53:51.512Z,13.90
2022-12-15T07:56:19.942Z,15.93
2022-12-15T07:58:48.223Z,13.77
2022-12-15T08:01:20.325Z,14.93
2022-12-15T08:03:49.806Z,14.30
2022-12-15T08:06:18.506Z,15.07
2022-12-15T08:08:50.020Z,19.00
2022-12-15T08:11:19.955Z,16.43
2022-12-15T08:14:02.684Z,13.50
2022-12-15T08:16:35.208Z,13.63
2022-12-15T08:19:03.717Z,16.40
2022-12-15T08:21:33.004Z,16.63
2022-12-15T08:24:06.569Z,13.40
2022-12-15T08:26:36.792Z,11.50
2022-12-15T08:29:49.015Z,11.47
2022-12-15T08:31:55.067Z,15.60
2022-12-15T08:34:23.274Z,15.43
2022-12-15T08:36:51.709Z,13.67
2022-12-15T08:39:20.400Z,15.70
2022-12-15T08:41:48.806Z,12.70
2022-12-15T08:44:18.245Z,12.70
2022-12-15T08:46:46.598Z,13.97
2022-12-15T08:49:21.490Z,13.30
2022-12-15T08:51:50.758Z,18.50
2022-12-15T08:54:19.412Z,14.37
2022-12-15T08:56:47.842Z,14.27
2022-12-15T08:59:19.651Z,15.50
2022-12-15T09:01:48.657Z,14.40
2022-12-15T09:04:19.008Z,14.50
2022-12-15T09:06:48.533Z,15.23
2022-12-15T09:09:21.618Z,17.83
2022-12-15T09:11:49.740Z,16.57
2022-12-15T09:14:17.919Z,15.03
2022-12-15T09:16:46.134Z,12.60
2022-12-15T09:19:22.087Z,15.10
2022-12-15T09:21:53.218Z,13.30
2022-12-15T09:24:32.259Z,13.77
2022-12-15T09:27:03.638Z,12.37
2022-12-15T09:29:33.664Z,12.83
2022-12-15T09:32:02.070Z,17.00
2022-12-15T09:34:35.257Z,15.37
2022-12-15T09:37:04.029Z,12.87
2022-12-15T09:39:34.061Z,14.10
2022-12-15T09:42:02.711Z,16.87
2022-12-15T09:44:32.129Z,14.27
2022-12-15T09:47:06.465Z,12.13
2022-12-15T09:49:57.217Z,12.13
2022-12-15T09:52:28.640Z,14.90
2022-12-15T09:54:57.680Z,12.83
2022-12-15T09:57:33.358Z,15.20
2022-12-15T10:00:21.928Z,13.43
2022-12-15T10:03:17.119Z,13.63
2022-12-15T10:06:15.424Z,14.50
2022-12-15T10:08:45.727Z,12.93
2022-12-15T10:11:22.592Z,16.13
2022-12-15T10:13:54.701Z,11.57
2022-12-15T10:16:35.945Z,11.63
2022-12-15T10:19:11.073Z,13.90
2022-12-15T10:21:41.404Z,11.40
2022-12-15T10:24:44.386Z,13.53
2022-12-15T10:27:23.985Z,10.73
2022-12-15T10:29:57.321Z,14.57
2022-12-15T10:32:30.156Z,14.83
2022-12-15T10:35:01.452Z,15.00
2022-12-15T10:37:35.208Z,18.40
2022-12-15T10:40:03.899Z,15.10
2022-12-15T10:42:33.285Z,18.83
2022-12-15T10:45:03.817Z,18.60
2022-12-15T10:47:33.276Z,18.00
2022-12-15T10:50:24.226Z,16.57
2022-12-15T10:52:55.293Z,19.00
2022-12-15T10:55:38.250Z,17.13
2022-12-15T10:58:17.278Z,18.57
2022-12-15T11:00:46.934Z,17.60
2022-12-15T11:03:24.711Z,16.70
2022-12-15T11:05:54.054Z,16.90
2022-12-15T11:08:25.078Z,17.03
2022-12-15T11:11:12.159Z,16.50
2022-12-15T11:13:41.140Z,18.47
2022-12-15T11:16:16.338Z,16.10
2022-12-15T11:18:45.784Z,18.43
2022-12-15T11:21:21.778Z,18.83
2022-12-15T11:23:59.812Z,17.30
2022-12-15T11:26:42.282Z,17.20
2022-12-15T11:29:15.114Z,18.07
2022-12-15T11:31:44.877Z,18.63
2022-12-15T11:34:13.672Z,16.40
2022-12-15T11:37:05.995Z,15.30
2022-12-15T11:39:43.447Z,15.60
2022-12-15T11:42:14.285Z,13.20
2022-12-15T11:44:45.471Z,16.83
2022-12-15T11:47:19.605Z,14.10
2022-12-15T11:50:22.307Z,12.03
2022-12-15T11:53:08.308Z,14.97
2022-12-15T11:55:41.876Z,15.40
2022-12-15T11:58:25.337Z,14.90
2022-12-15T12:00:57.314Z,16.67
2022-12-15T12:03:29.361Z,15.30
2022-12-15T12:06:10.880Z,15.60
2022-12-15T12:08:47.735Z,14.10
2022-12-15T12:11:22.567Z,15.40
2022-12-15T12:13:58.580Z,14.33
2022-12-15T12:16:32.690Z,15.00
2022-12-15T12:19:03.500Z,15.27
2022-12-15T12:21:33.086Z,14.13
2022-12-15T12:24:02.949Z,14.97
2022-12-15T12:26:37.065Z,11.50
2022-12-15T12:29:08.198Z,12.40
2022-12-15T12:31:44.076Z,14.17
2022-12-15T12:34:14.645Z,11.80
2022-12-15T12:36:44.053Z,12.70
2022-12-15T12:39:19.821Z,12.17
2022-12-15T12:41:52.208Z,11.80
2022-12-15T12:44:26.641Z,11.93
2022-12-15T12:46:55.839Z,10.17
2022-12-15T12:49:27.079Z,14.23
2022-12-15T12:51:55.725Z,9.47
2022-12-15T12:54:42.458Z,11.80
2022-12-15T13:10:26.074Z,10.07
2022-12-15T13:12:58.678Z,12.70
2022-12-15T13:15:38.669Z,9.47
2022-12-15T13:18:10.777Z,9.53
2022-12-15T13:20:39.361Z,9.90
2022-12-15T13:23:37.934Z,11.77
2022-12-15T13:26:16.978Z,11.03
2022-12-15T13:28:46.594Z,10.23
2022-12-15T13:31:29.877Z,8.47
2022-12-15T13:34:28.964Z,10.57
2022-12-15T13:37:03.573Z,10.37
2022-12-15T13:39:57.513Z,11.07
2022-12-15T13:42:51.301Z,10.53
2022-12-15T13:45:44.596Z,12.13
2022-12-15T13:48:29.089Z,8.90
2022-12-15T13:51:02.984Z,11.13
2022-12-15T13:53:34.210Z,10.00
2022-12-15T13:56:07.342Z,11.80
2022-12-15T13:58:41.156Z,10.53
2022-12-15T14:01:21.031Z,9.80
2022-12-15T14:04:05.586Z,13.37
2022-12-15T14:06:37.865Z,9.30
2022-12-15T14:09:06.479Z,10.13
2022-12-15T14:11:52.358Z,9.93
2022-12-15T14:14:24.975Z,11.10
2022-12-15T14:16:57.417Z,10.77
2022-12-15T14:19:26.674Z,14.67
2022-12-15T14:21:55.156Z,10.53
2022-12-15T14:24:41.372Z,8.73
2022-12-15T14:27:09.874Z,10.93
2022-12-15T14:29:39.325Z,13.37
2022-12-15T14:32:07.298Z,10.90
2022-12-15T14:34:37.462Z,11.37
2022-12-15T14:37:07.734Z,9.40
2022-12-15T14:39:37.900Z,8.90
2022-12-15T14:42:05.692Z,11.70
2022-12-15T14:44:38.297Z,12.60
2022-12-15T14:47:09.158Z,10.00
2022-12-15T14:49:41.059Z,11.70
2022-12-15T14:52:21.197Z,11.27
2022-12-15T14:54:53.578Z,12.50
2022-12-15T14:57:26.151Z,10.60
2022-12-15T14:59:54.917Z,10.60
2022-12-15T15:02:26.929Z,10.63
2022-12-15T15:05:02.514Z,8.90
2022-12-15T15:07:31.364Z,9.97
2022-12-15T15:09:59.590Z,11.57
2022-12-15T15:12:29.555Z,9.70
2022-12-15T15:15:04.455Z,12.00
2022-12-15T15:17:36.287Z,9.63
2022-12-15T15:20:06.194Z,10.33
2022-12-15T15:22:39.713Z,11.97
2022-12-15T15:25:27.393Z,10.67
2022-12-15T15:28:03.132Z,12.10
2022-12-15T15:30:31.916Z,11.17
2022-12-15T15:33:02.210Z,9.97
2022-12-15T15:35:31.999Z,11.40
2022-12-15T15:38:02.756Z,13.13
2022-12-15T15:40:30.949Z,16.13
2022-12-15T15:42:58.835Z,13.20
2022-12-15T15:45:27.135Z,12.90
2022-12-15T15:47:55.970Z,13.93
2022-12-15T15:50:28.887Z,15.90
2022-12-15T15:52:57.084Z,13.50
2022-12-15T15:55:26.900Z,25.57
2022-12-15T15:57:54.708Z,16.23
2022-12-15T16:00:24.561Z,16.83
2022-12-15T16:02:53.068Z,18.90
2022-12-15T16:05:21.903Z,18.50
2022-12-15T16:07:51.937Z,17.23
2022-12-15T16:10:20.800Z,19.90
2022-12-15T16:12:50.601Z,19.03
2022-12-15T16:15:20.195Z,19.53
2022-12-15T16:17:48.186Z,20.40
2022-12-15T16:20:17.121Z,19.60
2022-12-15T16:22:47.037Z,21.30
2022-12-15T16:25:18.840Z,18.80
2022-12-15T16:27:47.171Z,19.97
2022-12-15T16:30:19.848Z,20.10
2022-12-15T16:32:48.180Z,17.67
2022-12-15T16:35:16.259Z,16.43
2022-12-15T16:37:47.078Z,16.27
2022-12-15T16:40:17.955Z,18.83
2022-12-15T16:42:48.876Z,19.30
2022-12-15T16:45:18.018Z,18.90
2022-12-15T16:47:46.540Z,17.60
2022-12-15T16:50:16.004Z,17.97
2022-12-15T16:52:44.760Z,18.10
2022-12-15T16:55:24.184Z,16.17
2022-12-15T16:57:52.908Z,18.87
2022-12-15T17:00:22.614Z,18.07
2022-12-15T17:02:51.443Z,16.73
2022-12-15T17:05:21.064Z,19.63
2022-12-15T17:07:52.625Z,19.53
2022-12-15T17:10:23.964Z,18.07
2022-12-15T17:12:53.161Z,17.23
2022-12-15T17:15:23.418Z,16.13
2022-12-15T17:17:52.242Z,16.13
2022-12-15T17:20:30.701Z,19.10
2022-12-15T17:23:00.739Z,18.43
2022-12-15T17:26:09.429Z,15.70
2022-12-15T17:28:24.210Z,17.40
2022-12-15T17:30:53.464Z,14.73
2022-12-15T17:33:22.608Z,17.00
2022-12-15T17:35:52.150Z,15.27
2022-12-15T17:38:21.355Z,15.87
2022-12-15T17:40:54.514Z,14.53
2022-12-15T17:43:23.862Z,14.27
2022-12-15T17:45:55.947Z,15.23
2022-12-15T17:48:24.988Z,16.63
2022-12-15T17:50:55.043Z,18.27
2022-12-15T17:53:24.113Z,15.90
2022-12-15T17:55:55.052Z,16.30
2022-12-15T17:58:24.943Z,14.90
2022-12-15T18:00:54.596Z,17.53
2022-12-15T18:03:23.433Z,15.70
2022-12-15T18:05:54.405Z,14.60
2022-12-15T18:08:23.583Z,24.73
2022-12-15T18:10:58.317Z,14.03
2022-12-15T18:13:35.759Z,19.30
2022-12-15T18:16:07.444Z,16.87
2022-12-15T18:18:35.874Z,15.83
2022-12-15T18:21:09.135Z,15.60
2022-12-15T18:23:37.734Z,15.67
2022-12-15T18:26:10.224Z,13.47
2022-12-15T18:28:38.457Z,13.80
2022-12-15T18:31:20.966Z,11.40
2022-12-15T18:33:51.520Z,15.07
2022-12-15T18:36:23.706Z,14.87
2022-12-15T18:38:52.748Z,15.57
2022-12-15T18:41:25.865Z,13.60
2022-12-15T18:43:57.198Z,15.00
2022-12-15T18:46:28.004Z,12.60
2022-12-15T18:48:56.972Z,14.63
2022-12-15T18:51:25.533Z,15.00
2022-12-15T18:53:54.361Z,16.23
2022-12-15T18:56:24.436Z,15.17
2022-12-15T18:58:53.327Z,14.93
2022-12-15T19:01:21.853Z,16.47
2022-12-15T19:03:50.838Z,13.60
2022-12-15T19:06:25.671Z,12.50
2022-12-15T19:08:55.134Z,12.47
2022-12-15T19:11:31.427Z,17.57
2022-12-15T19:14:01.284Z,14.57
2022-12-15T19:16:49.686Z,15.10
2022-12-15T19:19:35.453Z,16.17
2022-12-15T19:22:21.050Z,12.73
2022-12-15T19:24:55.962Z,14.60
2022-12-15T19:27:27.482Z,13.60
2022-12-15T19:29:56.430Z,15.70
2022-12-15T19:32:26.833Z,13.10
2022-12-15T19:34:56.117Z,11.90
2022-12-15T19:37:25.176Z,14.43
2022-12-15T19:39:57.369Z,14.63
2022-12-15T19:42:30.396Z,15.40
2022-12-15T19:45:02.473Z,14.10
2022-12-15T19:47:31.709Z,12.17
2022-12-15T19:50:01.211Z,14.90
2022-12-15T19:52:35.700Z,13.23
2022-12-15T19:55:14.155Z,14.10
2022-12-15T20:01:46.579Z,16.47
2022-12-15T22:16:56.764Z,13.53
2022-12-15T22:19:26.774Z,14.03
2022-12-15T22:21:54.821Z,14.73
2022-12-15T22:24:23.391Z,12.87
2022-12-15T22:26:51.693Z,16.40
2022-12-15T22:29:21.073Z,16.50
2022-12-15T22:31:49.463Z,13.03
2022-12-15T22:34:21.300Z,16.70
2022-12-15T22:36:50.607Z,16.47
2022-12-15T22:39:20.119Z,13.40
2022-12-15T22:41:50.065Z,13.10
2022-12-15T22:44:19.612Z,15.03
2022-12-15T22:46:47.916Z,15.27
2022-12-15T22:49:16.634Z,15.53
2022-12-15T22:51:46.811Z,14.70
2022-12-15T22:54:20.137Z,13.60
2022-12-15T22:56:48.628Z,14.83
2022-12-15T22:59:19.909Z,12.90
2022-12-15T23:01:48.384Z,16.07
2022-12-15T23:04:16.213Z,13.93
2022-12-15T23:06:45.556Z,14.90
2022-12-15T23:09:13.245Z,13.90
2022-12-15T23:11:42.345Z,15.33
2022-12-15T23:14:12.809Z,13.33
2022-12-15T23:16:40.105Z,15.27
2022-12-15T23:19:08.761Z,12.53
2022-12-15T23:21:36.687Z,16.23
2022-12-15T23:24:04.619Z,13.60
2022-12-15T23:26:33.245Z,13.50
2022-12-15T23:29:02.296Z,16.67
2022-12-15T23:31:30.701Z,14.57
2022-12-15T23:33:58.448Z,14.27
2022-12-15T23:36:26.719Z,14.10
2022-12-15T23:38:56.142Z,13.47
2022-12-15T23:41:24.192Z,14.93
2022-12-15T23:43:52.643Z,16.50
2022-12-15T23:46:22.358Z,13.63
2022-12-15T23:48:50.472Z,13.20
2022-12-15T23:51:20.752Z,15.53
2022-12-15T23:53:49.282Z,14.73
2022-12-15T23:56:18.214Z,16.80
2022-12-15T23:58:47.039Z,14.57
